createdAt,value
2022-12-22T00:01:06.973Z,2.98
2022-12-22T00:05:34.977Z,3.27
2022-12-22T00:09:55.636Z,2.85
2022-12-22T00:14:17.070Z,2.95
2022-12-22T00:18:37.757Z,2.44
2022-12-22T00:22:57.757Z,2.62
2022-12-22T00:27:18.315Z,2.73
2022-12-22T00:31:39.591Z,2.81
2022-12-22T00:36:00.719Z,2.95
2022-12-22T00:40:20.870Z,2.72
2022-12-22T00:44:41.294Z,2.62
2022-12-22T00:49:02.536Z,2.99
2022-12-22T00:53:23.884Z,3.07
2022-12-22T00:57:45.606Z,3.14
2022-12-22T01:02:06.603Z,3.21
2022-12-22T01:06:28.475Z,3.17
2022-12-22T01:10:48.781Z,3.07
2022-12-22T01:15:09.242Z,3.00
2022-12-22T01:19:29.840Z,2.98
2022-12-22T01:23:50.642Z,2.87
2022-12-22T01:28:11.388Z,3.00
2022-12-22T01:32:33.847Z,2.99
2022-12-22T01:36:54.460Z,3.03
2022-12-22T01:41:16.706Z,2.98
2022-12-22T01:45:47.511Z,2.92
2022-12-22T01:50:07.475Z,2.99
2022-12-22T01:54:30.353Z,2.86
2022-12-22T01:58:55.673Z,3.16
2022-12-22T02:03:16.638Z,3.16
2022-12-22T02:07:59.017Z,3.08
2022-12-22T02:12:39.875Z,3.02
2022-12-22T02:17:18.363Z,3.27
2022-12-22T02:21:44.027Z,3.25
2022-12-22T02:26:17.627Z,3.27
2022-12-22T02:30:38.215Z,3.12
2022-12-22T02:34:58.410Z,2.87
2022-12-22T02:39:35.444Z,2.87
2022-12-22T02:44:04.607Z,3.02
2022-12-22T02:48:30.440Z,3.17
2022-12-22T02:52:53.982Z,2.77
2022-12-22T02:57:14.596Z,2.91
2022-12-22T03:01:34.841Z,2.92
2022-12-22T03:05:55.547Z,3.11
2022-12-22T03:10:15.684Z,3.20
2022-12-22T03:14:36.138Z,3.16
2022-12-22T03:18:56.292Z,3.21
2022-12-22T03:23:22.624Z,3.21
2022-12-22T03:27:24.290Z,3.24
2022-12-22T03:31:26.352Z,3.21
2022-12-22T03:35:28.182Z,3.14
2022-12-22T03:39:30.165Z,3.36
2022-12-22T03:43:50.709Z,3.38
2022-12-22T03:47:52.627Z,3.44
2022-12-22T03:51:54.347Z,3.11
2022-12-22T03:55:56.260Z,3.02
2022-12-22T03:59:57.949Z,3.01
2022-12-22T04:04:00.025Z,3.20
2022-12-22T04:08:01.790Z,3.25
2022-12-22T04:12:22.666Z,2.90
2022-12-22T04:16:24.999Z,3.21
2022-12-22T04:20:28.448Z,3.29
2022-12-22T04:24:30.092Z,2.91
2022-12-22T04:28:32.098Z,2.89
2022-12-22T04:32:34.532Z,3.19
2022-12-22T04:36:36.632Z,3.18
2022-12-22T04:40:38.473Z,3.12
2022-12-22T04:44:40.469Z,2.85
2022-12-22T04:48:42.170Z,2.76
2022-12-22T04:52:44.449Z,2.78
2022-12-22T04:56:46.110Z,2.76
2022-12-22T05:00:48.087Z,3.14
2022-12-22T05:04:49.856Z,3.12
2022-12-22T05:08:51.847Z,3.29
2022-12-22T05:12:56.411Z,3.00
2022-12-22T05:16:58.510Z,3.28
2022-12-22T05:21:06.158Z,3.34
2022-12-22T05:25:08.533Z,3.21
2022-12-22T05:29:10.232Z,3.03
2022-12-22T05:33:12.194Z,2.88
2022-12-22T05:37:13.881Z,3.15
2022-12-22T05:41:15.869Z,3.29
2022-12-22T05:45:19.923Z,3.28
2022-12-22T05:49:22.016Z,3.39
2022-12-22T05:53:23.797Z,3.38
2022-12-22T05:57:25.804Z,3.14
2022-12-22T06:01:27.550Z,3.24
2022-12-22T06:05:29.538Z,3.16
2022-12-22T06:09:31.222Z,3.29
2022-12-22T06:13:33.311Z,2.82
2022-12-22T06:17:42.143Z,3.15
2022-12-22T06:21:46.180Z,3.36
2022-12-22T06:25:58.049Z,3.48
2022-12-22T06:30:00.121Z,3.46
2022-12-22T06:34:01.908Z,3.56
2022-12-22T06:38:03.873Z,3.48
2022-12-22T06:42:24.007Z,3.49
2022-12-22T06:46:25.993Z,3.46
2022-12-22T06:50:27.893Z,3.15
2022-12-22T06:54:29.874Z,3.42
2022-12-22T06:58:31.484Z,3.26
2022-12-22T07:02:33.574Z,3.40
2022-12-22T07:06:36.292Z,3.41
2022-12-22T07:10:56.938Z,3.77
2022-12-22T07:14:58.677Z,3.78
2022-12-22T07:19:00.635Z,3.69
2022-12-22T07:23:02.380Z,3.55
2022-12-22T07:27:04.352Z,3.57
2022-12-22T07:31:07.126Z,3.48
2022-12-22T07:35:09.251Z,3.62
2022-12-22T07:39:12.713Z,3.61
2022-12-22T07:43:14.663Z,3.61
2022-12-22T07:47:16.422Z,3.50
2022-12-22T07:51:18.309Z,3.83
2022-12-22T07:55:20.405Z,3.65
2022-12-22T07:59:22.576Z,3.64
2022-12-22T08:03:24.327Z,3.60
2022-12-22T08:07:26.427Z,3.50
2022-12-22T08:11:28.465Z,3.48
2022-12-22T08:15:30.543Z,3.49
2022-12-22T08:19:32.907Z,3.45
2022-12-22T08:23:35.603Z,3.75
2022-12-22T08:27:48.038Z,3.83
2022-12-22T08:31:50.223Z,3.99
2022-12-22T08:35:52.169Z,3.94
2022-12-22T08:40:01.783Z,4.24
2022-12-22T08:44:03.499Z,4.02
2022-12-22T08:48:05.564Z,4.11
2022-12-22T08:52:08.880Z,4.17
2022-12-22T08:56:13.579Z,3.96
2022-12-22T09:00:15.794Z,3.85
2022-12-22T09:04:19.966Z,3.87
2022-12-22T09:08:21.738Z,3.92
2022-12-22T09:12:23.682Z,4.07
2022-12-22T09:16:28.091Z,4.01
2022-12-22T09:20:30.247Z,3.99
2022-12-22T09:24:32.096Z,3.99
2022-12-22T09:28:34.336Z,3.78
2022-12-22T09:32:36.136Z,3.73
2022-12-22T09:36:41.140Z,3.98
2022-12-22T09:40:42.884Z,3.89
2022-12-22T09:44:47.489Z,4.34
2022-12-22T09:48:49.524Z,4.51
2022-12-22T09:52:55.031Z,4.13
2022-12-22T09:56:57.939Z,4.27
2022-12-22T10:01:20.052Z,3.91
2022-12-22T10:05:28.495Z,4.41
2022-12-22T10:13:54.214Z,4.83
2022-12-22T10:18:12.884Z,4.69
2022-12-22T10:22:31.858Z,4.88
2022-12-22T10:26:34.338Z,4.50
2022-12-22T10:30:38.716Z,4.68
2022-12-22T10:35:06.771Z,4.76
2022-12-22T10:39:11.278Z,5.00
2022-12-22T10:43:22.573Z,4.74
2022-12-22T10:47:25.860Z,4.85
2022-12-22T10:51:27.635Z,4.81
2022-12-22T10:55:30.285Z,4.76
2022-12-22T10:59:34.003Z,4.81
2022-12-22T11:03:36.081Z,4.66
2022-12-22T11:07:43.129Z,4.68
2022-12-22T11:11:57.221Z,4.83
2022-12-22T11:16:03.873Z,4.78
2022-12-22T11:20:42.880Z,5.07
2022-12-22T11:25:13.801Z,5.02
2022-12-22T11:29:24.685Z,4.98
2022-12-22T11:33:50.396Z,5.08
2022-12-22T11:38:04.118Z,5.07
2022-12-22T11:42:22.404Z,4.98
2022-12-22T11:46:52.709Z,5.16
2022-12-22T11:50:59.671Z,5.05
2022-12-22T11:55:16.248Z,5.28
2022-12-22T11:59:27.397Z,5.12
2022-12-22T12:03:48.870Z,5.28
2022-12-22T12:07:57.874Z,5.40
2022-12-22T12:12:16.655Z,5.38
2022-12-22T12:16:33.742Z,5.49
2022-12-22T12:20:46.820Z,5.59
2022-12-22T12:25:11.308Z,5.71
2022-12-22T12:29:22.309Z,5.61
2022-12-22T12:33:38.780Z,5.43
2022-12-22T12:37:45.609Z,5.30
2022-12-22T12:41:56.285Z,5.33
2022-12-22T12:45:58.108Z,5.27
2022-12-22T12:50:06.216Z,5.31
2022-12-22T12:54:41.432Z,5.42
2022-12-22T12:58:49.547Z,5.47
2022-12-22T13:03:37.377Z,5.33
2022-12-22T13:08:14.555Z,5.18
2022-12-22T13:12:40.108Z,5.27
2022-12-22T13:16:42.213Z,5.26
2022-12-22T13:20:44.902Z,5.11
2022-12-22T13:24:49.124Z,5.22
2022-12-22T13:28:56.221Z,5.19
2022-12-22T13:33:02.170Z,4.99
2022-12-22T13:37:15.347Z,5.00
2022-12-22T13:41:26.763Z,4.98
2022-12-22T13:45:38.314Z,4.88
2022-12-22T13:50:07.733Z,4.80
2022-12-22T13:54:09.918Z,4.80
2022-12-22T13:58:27.231Z,4.93
2022-12-22T14:02:32.694Z,5.07
2022-12-22T14:06:37.902Z,5.06
2022-12-22T14:10:44.360Z,4.94
2022-12-22T14:14:48.268Z,4.86
2022-12-22T14:18:52.960Z,4.71
2022-12-22T14:22:58.811Z,4.96
2022-12-22T14:27:01.596Z,4.96
2022-12-22T14:31:05.785Z,4.91
2022-12-22T14:35:21.478Z,4.71
2022-12-22T14:39:31.885Z,4.72
2022-12-22T14:43:34.904Z,4.71
2022-12-22T14:47:37.320Z,4.71
2022-12-22T14:51:39.563Z,4.80
2022-12-22T14:55:42.769Z,4.78
2022-12-22T14:59:59.673Z,4.73
2022-12-22T15:04:04.223Z,4.82
2022-12-22T15:08:26.859Z,4.74
2022-12-22T15:12:28.565Z,4.81
2022-12-22T15:16:31.342Z,4.79
2022-12-22T15:20:39.065Z,4.76
2022-12-22T15:24:41.659Z,4.76
2022-12-22T15:28:43.393Z,4.74
2022-12-22T15:32:46.031Z,4.60
2022-12-22T15:36:48.000Z,4.59
2022-12-22T15:40:51.056Z,4.57
2022-12-22T15:44:52.849Z,4.54
2022-12-22T15:48:54.908Z,4.44
2022-12-22T15:52:58.983Z,4.36
2022-12-22T15:57:01.596Z,4.51
2022-12-22T16:01:03.540Z,4.51
2022-12-22T16:05:06.408Z,4.59
2022-12-22T16:09:16.520Z,4.42
2022-12-22T16:13:22.265Z,4.47
2022-12-22T16:17:26.995Z,4.50
2022-12-22T16:21:31.777Z,4.39
2022-12-22T16:25:37.293Z,4.45
2022-12-22T16:29:42.836Z,4.51
2022-12-22T16:33:44.537Z,4.30
2022-12-22T16:37:48.742Z,4.23
2022-12-22T16:42:00.100Z,4.29
2022-12-22T16:46:05.985Z,4.34
2022-12-22T16:50:16.993Z,4.24
2022-12-22T16:54:19.151Z,4.21
2022-12-22T16:58:21.318Z,4.23
2022-12-22T17:02:30.275Z,4.17
2022-12-22T17:06:32.901Z,4.20
2022-12-22T17:10:35.258Z,4.19
2022-12-22T17:14:39.348Z,4.19
2022-12-22T17:18:41.389Z,4.06
2022-12-22T17:22:47.110Z,4.03
2022-12-22T17:26:49.719Z,4.10
2022-12-22T17:30:51.850Z,4.01
2022-12-22T17:34:53.605Z,4.18
2022-12-22T17:38:55.585Z,4.20
2022-12-22T17:43:00.517Z,4.23
2022-12-22T17:47:02.656Z,4.23
2022-12-22T17:51:04.517Z,4.17
2022-12-22T17:55:16.803Z,4.12
2022-12-22T17:59:18.761Z,4.11
2022-12-22T18:03:20.769Z,4.04
2022-12-22T18:07:24.677Z,3.91
2022-12-22T18:11:27.341Z,3.86
2022-12-22T18:15:31.977Z,4.12
2022-12-22T18:19:33.739Z,4.17
2022-12-22T18:23:37.390Z,4.06
2022-12-22T18:27:39.110Z,3.99
2022-12-22T18:31:41.755Z,4.01
2022-12-22T18:35:43.907Z,3.92
2022-12-22T18:39:46.065Z,3.88
2022-12-22T18:43:48.159Z,3.84
2022-12-22T18:47:50.548Z,3.94
2022-12-22T18:51:52.366Z,3.99
2022-12-22T18:55:54.860Z,3.90
2022-12-22T18:59:56.934Z,4.03
2022-12-22T19:03:59.232Z,3.47
2022-12-22T19:08:01.181Z,3.80
2022-12-22T19:12:03.344Z,3.57
2022-12-22T19:16:07.003Z,3.45
2022-12-22T19:20:16.610Z,3.47
2022-12-22T19:24:18.792Z,3.65
2022-12-22T19:28:36.410Z,3.57
2022-12-22T19:32:44.307Z,4.02
2022-12-22T19:36:46.188Z,4.19
2022-12-22T19:40:50.854Z,4.18
2022-12-22T19:44:52.572Z,4.12
2022-12-22T19:48:56.451Z,4.14
2022-12-22T19:53:02.029Z,4.23
2022-12-22T19:57:07.564Z,4.29
2022-12-22T20:01:11.771Z,4.47
2022-12-22T20:05:22.660Z,4.36
2022-12-22T20:09:24.409Z,4.50
2022-12-22T20:13:32.646Z,4.36
2022-12-22T20:17:34.397Z,4.41
2022-12-22T20:21:36.444Z,4.53
2022-12-22T20:25:43.827Z,4.44
2022-12-22T20:29:45.831Z,4.41
2022-12-22T20:33:48.424Z,4.42
2022-12-22T20:37:50.454Z,4.38
2022-12-22T20:41:53.652Z,4.41
2022-12-22T20:46:00.324Z,4.49
2022-12-22T20:50:02.253Z,4.59
2022-12-22T20:54:04.650Z,4.51
2022-12-22T20:58:16.297Z,4.52
2022-12-22T21:02:24.188Z,4.59
2022-12-22T21:06:29.332Z,4.64
2022-12-22T21:10:31.540Z,4.25
2022-12-22T21:14:33.350Z,4.36
2022-12-22T21:18:35.318Z,4.55
2022-12-22T21:22:36.999Z,4.29
2022-12-22T21:26:42.996Z,4.49
2022-12-22T21:30:44.835Z,4.53
2022-12-22T21:34:46.776Z,4.85
2022-12-22T21:38:51.985Z,4.96
2022-12-22T21:42:54.160Z,5.04
2022-12-22T21:46:56.385Z,5.14
2022-12-22T21:50:58.825Z,5.21
2022-12-22T21:55:00.614Z,5.20
2022-12-22T21:59:04.130Z,5.22
2022-12-22T22:03:06.123Z,5.26
2022-12-22T22:07:08.166Z,5.22
2022-12-22T22:11:19.343Z,5.12
2022-12-22T22:15:23.371Z,4.98
2022-12-22T22:19:25.117Z,4.97
2022-12-22T22:23:27.172Z,5.01
2022-12-22T22:27:28.944Z,4.81
2022-12-22T22:31:31.081Z,4.84
2022-12-22T22:35:32.903Z,4.89
2022-12-22T22:39:34.846Z,4.90
2022-12-22T22:43:36.717Z,4.64
2022-12-22T22:47:38.809Z,4.93
2022-12-22T22:51:40.531Z,5.09
2022-12-22T22:55:42.731Z,5.09
2022-12-22T22:59:44.498Z,5.19
2022-12-22T23:03:46.654Z,5.31
2022-12-22T23:07:48.446Z,5.35
2022-12-22T23:11:52.403Z,5.32
2022-12-22T23:16:01.943Z,5.45
2022-12-22T23:20:04.539Z,5.17
2022-12-22T23:24:06.765Z,5.16
2022-12-22T23:28:09.404Z,5.53
2022-12-22T23:32:11.262Z,5.34
2022-12-22T23:36:13.369Z,5.29
2022-12-22T23:40:50.559Z,5.42
2022-12-22T23:44:37.148Z,5.46
2022-12-22T23:48:42.375Z,5.43
2022-12-22T23:52:49.129Z,5.54
2022-12-22T23:56:51.218Z,5.38
